Bei Facebook empfehlenBei Twitter postenGoogle plusPinterest

Das Wetter im Erzgebirge am 01.08.2016

Wetter und Klima am 01.08.2016 Holzhau im Erzgebirge (630m ü.NN)
Letzte gemessene Temperatur und Uhrzeit der Messung23:45:00 Uhr8.20 °C
Temperatur (Maximum / Höchstwert) und Uhrzeit der Messung16:30:00 Uhr20.10 °C
Temperatur (Minimum / Tiefstwert) und Uhrzeit der Messung23:45:008.20 °C
Errechneter Absolutwert der Temperaturschwankungen zwischen Tmin und Tmax des Tages11.90 K
Errechnete Tagesmitteltemperatur14.50938 °C
Gesamt - Niederschlag des Tages (in flüssiger Form)1.04 Liter / m²
Luftdruck (Maximum / Höchstwert) und Zeitpunkt der Messung22:30:00 Uhr1017.90 hPa
Luftdruck (Minimum / Tiefstwert) und Zeitpunkt der Messung01:00:00 Uhr1012.10 hPa
Errechneter Absolutwert der Luftdruckschwankungen des Tages5.80 hPa
Höchste gemessene Windgeschwindigkeit und Uhrzeit der Messung23:45:00 Uhr0.00 km/h
Errechnete Windhäufigkeit in Relation zu den Messwerten des Tages0.00000 %
Niedrigste Windkühle (Windchill) und Zeitpunkt der Messung23:45:00 Uhr8.20 °C
Taupunkt (Maximum / Höchstwert) und Uhrzeit der Messung11:45:00 Uhr15.40 °C
Taupunkt (Minimum / Tiefstwert) und Uhrzeit der Messung23:45:006.50 °C
Anzahl der automatisch eingelesenen Messwerte 96

Detaillierte Wetter- und Klima- Messwerte für den 01.08.2016 in Holzhau im Erzgebirge (630m ü.NN)
ZeitTemperaturLuftdruckRel. LuftfeuchteWindWindrichtungWindchillTaupunktNiederschlag l/m²
23:45:008.20 °C1017.50 hPa89.00 %6.50 °C1.04
23:30:008.40 °C1017.50 hPa88.00 %6.50 °C1.04
23:15:008.60 °C1017.60 hPa87.00 %6.60 °C1.04
23:00:008.90 °C1017.70 hPa87.00 %6.90 °C1.04
22:45:009.20 °C1017.80 hPa86.00 %7.00 °C1.04
22:30:009.40 °C1017.90 hPa85.00 %7.00 °C1.04
22:15:009.80 °C1017.90 hPa85.00 %7.40 °C1.04
22:00:0010.20 °C1017.90 hPa84.00 %7.60 °C1.04
21:45:0010.80 °C1017.80 hPa82.00 %7.90 °C1.04
21:30:0011.40 °C1017.70 hPa81.00 %8.30 °C1.04
21:15:0012.20 °C1017.70 hPa79.00 %8.70 °C1.04
21:00:0013.20 °C1017.70 hPa77.00 %9.30 °C1.04
20:45:0014.20 °C1017.70 hPa74.00 %9.60 °C1.04
20:30:0015.30 °C1017.60 hPa73.00 %10.50 °C1.04
20:15:0015.90 °C1017.40 hPa72.00 %10.90 °C1.04
20:00:0016.20 °C1017.30 hPa71.00 %10.90 °C1.04
19:45:0016.30 °C1017.30 hPa70.00 %10.80 °C1.04
19:30:0016.30 °C1017.30 hPa66.00 %9.90 °C1.04
19:15:0016.80 °C1017.50 hPa65.00 %10.20 °C1.04
19:00:0017.00 °C1017.50 hPa65.00 %10.40 °C1.04
18:45:0017.30 °C1017.50 hPa63.00 %10.20 °C1.04
18:30:0017.50 °C1017.40 hPa62.00 %10.10 °C1.04
18:15:0017.90 °C1017.50 hPa61.00 %10.30 °C1.04
18:00:0018.10 °C1017.40 hPa59.00 %10.00 °C1.04
17:45:0018.30 °C1017.60 hPa58.00 %9.90 °C1.04
17:30:0018.80 °C1017.70 hPa56.00 %9.80 °C1.04
17:15:0019.40 °C1017.50 hPa55.00 %10.10 °C1.04
17:00:0019.90 °C1017.60 hPa54.00 %10.30 °C1.04
16:45:0019.40 °C1017.60 hPa59.00 %11.20 °C1.04
16:30:0020.10 °C1017.50 hPa57.00 %11.30 °C1.04
16:15:0019.90 °C1017.50 hPa59.00 %11.70 °C1.04
16:00:0019.50 °C1017.60 hPa62.00 %12.00 °C1.04
15:45:0018.90 °C1017.60 hPa63.00 %11.70 °C1.04
15:30:0018.80 °C1017.50 hPa60.00 %10.90 °C1.04
15:15:0019.50 °C1017.30 hPa62.00 %12.00 °C1.04
15:00:0019.50 °C1017.30 hPa62.00 %12.00 °C1.04
14:45:0019.00 °C1017.40 hPa62.00 %11.60 °C1.04
14:30:0019.00 °C1017.40 hPa62.00 %11.60 °C1.04
14:15:0019.90 °C1017.10 hPa67.00 %13.60 °C0.52
14:00:0018.90 °C1017.30 hPa72.00 %13.70 °C0.52
13:45:0018.30 °C1017.40 hPa74.00 %13.60 °C0.52
13:30:0018.40 °C1017.20 hPa73.00 %13.50 °C0.52
13:15:0019.40 °C1017.30 hPa72.00 %14.20 °C0.52
13:00:0019.40 °C1017.30 hPa73.00 %14.40 °C0.52
12:45:0019.20 °C1017.40 hPa76.00 %14.90 °C0.52
12:30:0018.20 °C1017.50 hPa81.00 %14.90 °C0.52
12:15:0017.50 °C1017.30 hPa83.00 %14.60 °C0.52
12:00:0017.80 °C1017.40 hPa84.00 %15.10 °C0.52
11:45:0017.40 °C1017.20 hPa88.00 %15.40 °C0.52
11:30:0016.90 °C1017.40 hPa90.00 %15.20 °C0.52
11:15:0015.60 °C1017.40 hPa91.00 %14.10 °C0.52
11:00:0015.10 °C1017.20 hPa92.00 %13.80 °C0.52
10:45:0014.90 °C1017.10 hPa93.00 %13.80 °C0.52
10:30:0014.20 °C1016.90 hPa94.00 %13.20 °C0.52
10:15:0014.70 °C1016.80 hPa94.00 %13.70 °C0.52
10:00:0014.00 °C1016.70 hPa95.00 %13.20 °C0.52
09:45:0012.90 °C1016.60 hPa95.00 %12.10 °C0.52
09:30:0012.90 °C1016.30 hPa95.00 %12.10 °C0.52
09:15:0012.40 °C1016.00 hPa95.00 %11.60 °C0.52
09:00:0012.50 °C1016.00 hPa95.00 %11.70 °C0.52
08:45:0012.50 °C1015.50 hPa96.00 %11.90 °C0.52
08:30:0012.70 °C1015.20 hPa96.00 %12.10 °C0.52
08:15:0012.80 °C1015.10 hPa96.00 %12.20 °C0.52
08:00:0012.50 °C1014.90 hPa96.00 %11.90 °C0.52
07:45:0012.20 °C1014.70 hPa96.00 %11.60 °C0.52
07:30:0012.10 °C1014.40 hPa96.00 %11.50 °C0.52
07:15:0012.10 °C1014.00 hPa96.00 %11.50 °C0.52
07:00:0012.10 °C1013.90 hPa96.00 %11.50 °C0.52
06:45:0011.90 °C1013.90 hPa96.00 %11.30 °C0.52
06:30:0011.80 °C1013.90 hPa96.00 %11.20 °C0.52
06:15:0011.60 °C1013.90 hPa96.00 %11.00 °C0.52
06:00:0011.60 °C1013.80 hPa96.00 %11.00 °C0.52
05:45:0011.50 °C1013.50 hPa96.00 %10.90 °C0.52
05:30:0011.50 °C1013.30 hPa96.00 %10.90 °C0.52
05:15:0011.80 °C1013.20 hPa96.00 %11.20 °C0.52
05:00:0011.90 °C1013.20 hPa96.00 %11.30 °C0.52
04:45:0011.90 °C1013.00 hPa96.00 %11.30 °C0.52
04:30:0011.90 °C1012.80 hPa96.00 %11.30 °C0.52
04:15:0011.90 °C1012.70 hPa95.00 %11.10 °C0.52
04:00:0011.90 °C1012.70 hPa95.00 %11.10 °C0.52
03:45:0011.90 °C1012.60 hPa95.00 %11.10 °C0.52
03:30:0012.10 °C1012.50 hPa95.00 %11.30 °C0.52
03:15:0012.40 °C1012.60 hPa95.00 %11.60 °C0.52
03:00:0012.50 °C1012.70 hPa95.00 %11.70 °C0.52
02:45:0012.50 °C1012.50 hPa95.00 %11.70 °C0.52
02:30:0012.50 °C1012.40 hPa95.00 %11.70 °C0.52
02:15:0012.60 °C1012.50 hPa95.00 %11.80 °C0.52
02:00:0012.70 °C1012.60 hPa95.00 %11.90 °C0.52
01:45:0012.80 °C1012.50 hPa95.00 %12.00 °C0.52
01:30:0012.90 °C1012.40 hPa95.00 %12.10 °C0.52
01:15:0012.90 °C1012.40 hPa95.00 %12.10 °C0.52
01:00:0012.90 °C1012.10 hPa95.00 %12.10 °C0.52
00:45:0012.90 °C1012.30 hPa95.00 %12.10 °C0.52
00:30:0012.90 °C1012.30 hPa95.00 %12.10 °C0.52
00:15:0013.20 °C1012.30 hPa95.00 %12.40 °C0.52
00:00:0013.40 °C1012.40 hPa94.00 %12.50 °C 

Permanenter Link zu dieser Seite: Wetter im Erzgebirge am 01.08.2016
Performance-Info: Die Erstellung der Seite / Statistik(en) / Tabelle(n) erforderte 5 Datenbankserver-Abfrage(n) und dauerte 98 Millisekunden. (Dieser Messwert ist von der Gesamt-Auslastung des Servers abhängig.)
Erzgebirge - Wetter | Erzgebirge - Wetter (Mobilgeräte) | Komplette Klimadatenbank